sensor_id;sensor_type;location;lat;lon;timestamp;P1;durP1;ratioP1;P2;durP2;ratioP2
46391;SDS011;32098;49.448;7.904;2023-09-18T00:00:30;7.85;;;3.67;;
46391;SDS011;32098;49.448;7.904;2023-09-18T00:02:59;5.80;;;3.83;;
46391;SDS011;32098;49.448;7.904;2023-09-18T00:05:29;6.50;;;4.00;;
46391;SDS011;32098;49.448;7.904;2023-09-18T00:07:56;7.53;;;4.05;;
46391;SDS011;32098;49.448;7.904;2023-09-18T00:10:22;6.72;;;4.28;;
46391;SDS011;32098;49.448;7.904;2023-09-18T00:12:49;5.30;;;3.67;;
46391;SDS011;32098;49.448;7.904;2023-09-18T00:15:15;5.78;;;3.50;;
46391;SDS011;32098;49.448;7.904;2023-09-18T00:17:42;5.05;;;3.97;;
46391;SDS011;32098;49.448;7.904;2023-09-18T00:20:09;5.50;;;3.50;;
46391;SDS011;32098;49.448;7.904;2023-09-18T00:22:36;5.75;;;3.80;;
46391;SDS011;32098;49.448;7.904;2023-09-18T00:25:02;7.18;;;4.25;;
46391;SDS011;32098;49.448;7.904;2023-09-18T00:27:29;4.72;;;3.63;;
46391;SDS011;32098;49.448;7.904;2023-09-18T00:29:56;11.15;;;4.20;;
46391;SDS011;32098;49.448;7.904;2023-09-18T00:32:22;5.60;;;3.50;;
46391;SDS011;32098;49.448;7.904;2023-09-18T00:34:49;7.82;;;3.65;;
46391;SDS011;32098;49.448;7.904;2023-09-18T00:37:16;6.85;;;3.75;;
46391;SDS011;32098;49.448;7.904;2023-09-18T00:39:43;5.18;;;3.40;;
46391;SDS011;32098;49.448;7.904;2023-09-18T00:42:10;5.40;;;3.40;;
46391;SDS011;32098;49.448;7.904;2023-09-18T00:44:42;6.30;;;3.67;;
46391;SDS011;32098;49.448;7.904;2023-09-18T00:47:08;6.50;;;3.38;;
46391;SDS011;32098;49.448;7.904;2023-09-18T00:49:36;6.72;;;3.60;;
46391;SDS011;32098;49.448;7.904;2023-09-18T00:52:05;7.95;;;3.83;;
46391;SDS011;32098;49.448;7.904;2023-09-18T00:54:34;7.53;;;3.75;;
46391;SDS011;32098;49.448;7.904;2023-09-18T00:57:02;5.35;;;3.45;;
46391;SDS011;32098;49.448;7.904;2023-09-18T00:59:31;6.22;;;3.60;;
46391;SDS011;32098;49.448;7.904;2023-09-18T01:02:00;5.00;;;3.50;;
46391;SDS011;32098;49.448;7.904;2023-09-18T01:04:30;6.13;;;3.72;;
46391;SDS011;32098;49.448;7.904;2023-09-18T01:07:02;5.97;;;3.28;;
46391;SDS011;32098;49.448;7.904;2023-09-18T01:09:30;7.97;;;4.07;;
46391;SDS011;32098;49.448;7.904;2023-09-18T01:12:01;11.18;;;4.57;;
46391;SDS011;32098;49.448;7.904;2023-09-18T01:14:55;10.48;;;4.30;;
46391;SDS011;32098;49.448;7.904;2023-09-18T01:17:25;8.13;;;3.72;;
46391;SDS011;32098;49.448;7.904;2023-09-18T01:19:52;7.22;;;3.13;;
46391;SDS011;32098;49.448;7.904;2023-09-18T01:22:19;9.63;;;3.13;;
46391;SDS011;32098;49.448;7.904;2023-09-18T01:24:46;10.02;;;4.18;;
46391;SDS011;32098;49.448;7.904;2023-09-18T01:27:17;7.55;;;3.50;;
46391;SDS011;32098;49.448;7.904;2023-09-18T01:29:44;7.88;;;3.60;;
46391;SDS011;32098;49.448;7.904;2023-09-18T01:32:12;11.60;;;3.33;;
46391;SDS011;32098;49.448;7.904;2023-09-18T01:34:50;10.75;;;4.57;;
46391;SDS011;32098;49.448;7.904;2023-09-18T01:37:20;10.88;;;4.07;;
46391;SDS011;32098;49.448;7.904;2023-09-18T01:39:49;8.98;;;3.55;;
46391;SDS011;32098;49.448;7.904;2023-09-18T01:42:17;9.30;;;4.03;;
46391;SDS011;32098;49.448;7.904;2023-09-18T01:44:44;8.95;;;3.72;;
46391;SDS011;32098;49.448;7.904;2023-09-18T01:47:13;6.53;;;3.65;;
46391;SDS011;32098;49.448;7.904;2023-09-18T01:49:42;7.85;;;3.83;;
46391;SDS011;32098;49.448;7.904;2023-09-18T01:52:09;7.28;;;3.72;;
46391;SDS011;32098;49.448;7.904;2023-09-18T01:54:36;7.22;;;3.60;;
46391;SDS011;32098;49.448;7.904;2023-09-18T01:57:03;7.70;;;3.70;;
46391;SDS011;32098;49.448;7.904;2023-09-18T01:59:31;7.18;;;3.78;;
46391;SDS011;32098;49.448;7.904;2023-09-18T02:01:58;8.55;;;3.90;;
46391;SDS011;32098;49.448;7.904;2023-09-18T02:04:25;7.38;;;3.38;;
46391;SDS011;32098;49.448;7.904;2023-09-18T02:07:13;8.65;;;3.55;;
46391;SDS011;32098;49.448;7.904;2023-09-18T02:09:40;9.32;;;4.18;;
46391;SDS011;32098;49.448;7.904;2023-09-18T02:12:07;7.20;;;3.80;;
46391;SDS011;32098;49.448;7.904;2023-09-18T02:14:33;7.07;;;3.80;;
46391;SDS011;32098;49.448;7.904;2023-09-18T02:17:00;8.18;;;3.78;;
46391;SDS011;32098;49.448;7.904;2023-09-18T02:19:27;10.07;;;3.90;;
46391;SDS011;32098;49.448;7.904;2023-09-18T02:21:55;8.13;;;3.83;;
46391;SDS011;32098;49.448;7.904;2023-09-18T02:24:23;6.80;;;3.72;;
46391;SDS011;32098;49.448;7.904;2023-09-18T02:26:50;11.48;;;4.63;;
46391;SDS011;32098;49.448;7.904;2023-09-18T02:29:16;10.75;;;4.80;;
46391;SDS011;32098;49.448;7.904;2023-09-18T02:31:43;13.63;;;4.72;;
46391;SDS011;32098;49.448;7.904;2023-09-18T02:34:10;14.52;;;4.80;;
46391;SDS011;32098;49.448;7.904;2023-09-18T02:36:37;16.63;;;5.05;;
46391;SDS011;32098;49.448;7.904;2023-09-18T02:39:04;12.10;;;4.75;;
46391;SDS011;32098;49.448;7.904;2023-09-18T02:41:31;13.82;;;4.88;;
46391;SDS011;32098;49.448;7.904;2023-09-18T02:43:57;17.33;;;5.20;;
46391;SDS011;32098;49.448;7.904;2023-09-18T02:46:24;14.30;;;4.53;;
46391;SDS011;32098;49.448;7.904;2023-09-18T02:48:51;12.95;;;4.68;;
46391;SDS011;32098;49.448;7.904;2023-09-18T02:51:18;13.90;;;4.35;;
46391;SDS011;32098;49.448;7.904;2023-09-18T02:53:45;14.07;;;4.68;;
46391;SDS011;32098;49.448;7.904;2023-09-18T02:56:11;15.45;;;4.93;;
46391;SDS011;32098;49.448;7.904;2023-09-18T02:58:38;12.52;;;4.78;;
46391;SDS011;32098;49.448;7.904;2023-09-18T03:01:06;15.95;;;4.45;;
46391;SDS011;32098;49.448;7.904;2023-09-18T03:03:33;14.80;;;5.10;;
46391;SDS011;32098;49.448;7.904;2023-09-18T03:06:01;16.75;;;5.00;;
46391;SDS011;32098;49.448;7.904;2023-09-18T03:08:29;14.70;;;4.32;;
46391;SDS011;32098;49.448;7.904;2023-09-18T03:10:57;12.70;;;4.32;;
46391;SDS011;32098;49.448;7.904;2023-09-18T03:13:26;9.07;;;3.55;;
46391;SDS011;32098;49.448;7.904;2023-09-18T03:15:54;13.65;;;4.15;;
46391;SDS011;32098;49.448;7.904;2023-09-18T03:18:23;17.13;;;4.80;;
46391;SDS011;32098;49.448;7.904;2023-09-18T03:20:50;12.05;;;4.50;;
46391;SDS011;32098;49.448;7.904;2023-09-18T03:23:18;14.57;;;4.22;;
46391;SDS011;32098;49.448;7.904;2023-09-18T03:25:44;12.15;;;3.78;;
46391;SDS011;32098;49.448;7.904;2023-09-18T03:28:16;11.95;;;4.18;;
46391;SDS011;32098;49.448;7.904;2023-09-18T03:30:43;12.93;;;4.00;;
46391;SDS011;32098;49.448;7.904;2023-09-18T03:33:10;9.75;;;3.92;;
46391;SDS011;32098;49.448;7.904;2023-09-18T03:35:49;13.07;;;4.30;;
46391;SDS011;32098;49.448;7.904;2023-09-18T03:38:21;12.57;;;3.70;;
46391;SDS011;32098;49.448;7.904;2023-09-18T03:40:49;12.85;;;3.25;;
46391;SDS011;32098;49.448;7.904;2023-09-18T03:43:16;8.52;;;3.20;;
46391;SDS011;32098;49.448;7.904;2023-09-18T03:45:43;7.63;;;2.70;;
46391;SDS011;32098;49.448;7.904;2023-09-18T03:48:10;13.50;;;3.22;;
46391;SDS011;32098;49.448;7.904;2023-09-18T03:50:38;11.13;;;3.30;;
46391;SDS011;32098;49.448;7.904;2023-09-18T03:53:06;11.40;;;2.97;;
46391;SDS011;32098;49.448;7.904;2023-09-18T03:55:32;9.68;;;3.00;;
46391;SDS011;32098;49.448;7.904;2023-09-18T03:57:59;8.20;;;2.90;;
46391;SDS011;32098;49.448;7.904;2023-09-18T04:00:26;13.00;;;3.17;;
46391;SDS011;32098;49.448;7.904;2023-09-18T04:02:53;8.80;;;3.10;;
46391;SDS011;32098;49.448;7.904;2023-09-18T04:05:20;13.13;;;3.45;;
46391;SDS011;32098;49.448;7.904;2023-09-18T04:07:47;10.02;;;3.10;;
46391;SDS011;32098;49.448;7.904;2023-09-18T04:10:14;10.75;;;3.15;;
46391;SDS011;32098;49.448;7.904;2023-09-18T04:12:51;15.32;;;3.17;;
46391;SDS011;32098;49.448;7.904;2023-09-18T04:15:18;9.00;;;3.50;;
46391;SDS011;32098;49.448;7.904;2023-09-18T04:17:46;7.57;;;2.92;;
46391;SDS011;32098;49.448;7.904;2023-09-18T04:20:13;9.20;;;2.92;;
46391;SDS011;32098;49.448;7.904;2023-09-18T04:22:44;9.25;;;3.00;;
46391;SDS011;32098;49.448;7.904;2023-09-18T04:25:16;8.65;;;2.75;;
46391;SDS011;32098;49.448;7.904;2023-09-18T04:27:45;12.68;;;3.17;;
46391;SDS011;32098;49.448;7.904;2023-09-18T04:30:12;12.15;;;2.80;;
46391;SDS011;32098;49.448;7.904;2023-09-18T04:32:40;8.02;;;3.47;;
46391;SDS011;32098;49.448;7.904;2023-09-18T04:35:07;9.68;;;3.20;;
46391;SDS011;32098;49.448;7.904;2023-09-18T04:37:36;11.48;;;3.50;;
46391;SDS011;32098;49.448;7.904;2023-09-18T04:40:07;10.90;;;3.83;;
46391;SDS011;32098;49.448;7.904;2023-09-18T04:42:38;9.15;;;3.17;;
46391;SDS011;32098;49.448;7.904;2023-09-18T04:45:06;9.85;;;2.95;;
46391;SDS011;32098;49.448;7.904;2023-09-18T04:47:34;8.70;;;3.38;;
46391;SDS011;32098;49.448;7.904;2023-09-18T04:50:01;7.35;;;2.90;;
46391;SDS011;32098;49.448;7.904;2023-09-18T04:52:34;7.47;;;3.10;;
46391;SDS011;32098;49.448;7.904;2023-09-18T04:55:01;7.35;;;2.97;;
46391;SDS011;32098;49.448;7.904;2023-09-18T04:57:28;8.52;;;3.25;;
46391;SDS011;32098;49.448;7.904;2023-09-18T04:59:54;10.40;;;3.40;;
46391;SDS011;32098;49.448;7.904;2023-09-18T05:02:41;10.18;;;3.28;;
46391;SDS011;32098;49.448;7.904;2023-09-18T05:05:08;8.10;;;3.05;;
46391;SDS011;32098;49.448;7.904;2023-09-18T05:07:38;8.85;;;3.10;;
46391;SDS011;32098;49.448;7.904;2023-09-18T05:10:04;8.85;;;3.35;;
46391;SDS011;32098;49.448;7.904;2023-09-18T05:12:31;11.73;;;3.35;;
46391;SDS011;32098;49.448;7.904;2023-09-18T05:14:58;14.73;;;3.55;;
46391;SDS011;32098;49.448;7.904;2023-09-18T05:17:38;10.88;;;3.63;;
46391;SDS011;32098;49.448;7.904;2023-09-18T05:20:10;8.75;;;3.70;;
46391;SDS011;32098;49.448;7.904;2023-09-18T05:22:42;11.02;;;3.20;;
46391;SDS011;32098;49.448;7.904;2023-09-18T05:25:09;11.68;;;3.92;;
46391;SDS011;32098;49.448;7.904;2023-09-18T05:27:36;9.10;;;3.70;;
46391;SDS011;32098;49.448;7.904;2023-09-18T05:30:14;12.32;;;3.72;;
46391;SDS011;32098;49.448;7.904;2023-09-18T05:32:42;12.27;;;3.40;;
46391;SDS011;32098;49.448;7.904;2023-09-18T05:35:11;13.25;;;3.78;;
46391;SDS011;32098;49.448;7.904;2023-09-18T05:37:39;9.05;;;3.38;;
46391;SDS011;32098;49.448;7.904;2023-09-18T05:40:07;9.70;;;3.53;;
46391;SDS011;32098;49.448;7.904;2023-09-18T05:42:39;9.15;;;3.40;;
46391;SDS011;32098;49.448;7.904;2023-09-18T05:45:10;12.35;;;4.03;;
46391;SDS011;32098;49.448;7.904;2023-09-18T05:47:37;12.38;;;3.92;;
46391;SDS011;32098;49.448;7.904;2023-09-18T05:50:05;10.15;;;3.65;;
46391;SDS011;32098;49.448;7.904;2023-09-18T05:52:34;11.65;;;3.58;;
46391;SDS011;32098;49.448;7.904;2023-09-18T05:55:02;9.70;;;3.17;;
46391;SDS011;32098;49.448;7.904;2023-09-18T05:57:31;8.60;;;3.28;;
46391;SDS011;32098;49.448;7.904;2023-09-18T05:59:58;12.10;;;3.35;;
46391;SDS011;32098;49.448;7.904;2023-09-18T06:02:24;10.80;;;3.35;;
46391;SDS011;32098;49.448;7.904;2023-09-18T06:04:54;7.88;;;3.40;;
46391;SDS011;32098;49.448;7.904;2023-09-18T06:07:24;11.38;;;3.78;;
46391;SDS011;32098;49.448;7.904;2023-09-18T06:09:51;10.68;;;3.40;;
46391;SDS011;32098;49.448;7.904;2023-09-18T06:12:17;12.38;;;3.20;;
46391;SDS011;32098;49.448;7.904;2023-09-18T06:14:44;8.00;;;3.28;;
46391;SDS011;32098;49.448;7.904;2023-09-18T06:17:13;12.07;;;3.53;;
46391;SDS011;32098;49.448;7.904;2023-09-18T06:19:41;7.15;;;3.10;;
46391;SDS011;32098;49.448;7.904;2023-09-18T06:22:08;9.38;;;3.33;;
46391;SDS011;32098;49.448;7.904;2023-09-18T06:24:34;7.82;;;3.08;;
46391;SDS011;32098;49.448;7.904;2023-09-18T06:27:02;9.27;;;3.35;;
46391;SDS011;32098;49.448;7.904;2023-09-18T06:29:30;13.05;;;3.80;;
46391;SDS011;32098;49.448;7.904;2023-09-18T06:31:58;11.50;;;3.20;;
46391;SDS011;32098;49.448;7.904;2023-09-18T06:34:25;9.85;;;2.92;;
46391;SDS011;32098;49.448;7.904;2023-09-18T06:36:51;7.72;;;3.15;;
46391;SDS011;32098;49.448;7.904;2023-09-18T06:39:18;8.43;;;3.38;;
46391;SDS011;32098;49.448;7.904;2023-09-18T06:41:46;9.82;;;3.30;;
46391;SDS011;32098;49.448;7.904;2023-09-18T06:44:13;9.82;;;3.33;;
46391;SDS011;32098;49.448;7.904;2023-09-18T06:46:39;9.18;;;2.67;;
46391;SDS011;32098;49.448;7.904;2023-09-18T06:49:07;9.40;;;3.65;;
46391;SDS011;32098;49.448;7.904;2023-09-18T06:51:33;8.70;;;3.22;;
46391;SDS011;32098;49.448;7.904;2023-09-18T06:54:08;7.45;;;2.55;;
46391;SDS011;32098;49.448;7.904;2023-09-18T06:56:35;6.50;;;2.40;;
46391;SDS011;32098;49.448;7.904;2023-09-18T06:59:02;9.40;;;2.80;;
46391;SDS011;32098;49.448;7.904;2023-09-18T07:01:28;8.63;;;2.22;;
46391;SDS011;32098;49.448;7.904;2023-09-18T07:03:58;6.75;;;2.65;;
46391;SDS011;32098;49.448;7.904;2023-09-18T07:06:26;7.53;;;2.55;;
46391;SDS011;32098;49.448;7.904;2023-09-18T07:08:52;6.32;;;2.40;;
46391;SDS011;32098;49.448;7.904;2023-09-18T07:11:20;9.95;;;2.40;;
46391;SDS011;32098;49.448;7.904;2023-09-18T07:13:49;5.45;;;2.35;;
46391;SDS011;32098;49.448;7.904;2023-09-18T07:16:16;6.75;;;2.20;;
46391;SDS011;32098;49.448;7.904;2023-09-18T07:18:42;4.93;;;2.00;;
46391;SDS011;32098;49.448;7.904;2023-09-18T07:21:09;11.13;;;2.70;;
46391;SDS011;32098;49.448;7.904;2023-09-18T07:23:36;6.47;;;2.58;;
46391;SDS011;32098;49.448;7.904;2023-09-18T07:26:03;7.88;;;2.35;;
46391;SDS011;32098;49.448;7.904;2023-09-18T07:28:30;8.38;;;2.75;;
46391;SDS011;32098;49.448;7.904;2023-09-18T07:30:56;9.00;;;2.20;;
46391;SDS011;32098;49.448;7.904;2023-09-18T07:33:23;7.88;;;2.40;;
46391;SDS011;32098;49.448;7.904;2023-09-18T07:35:50;6.30;;;2.00;;
46391;SDS011;32098;49.448;7.904;2023-09-18T07:38:19;7.68;;;2.42;;
46391;SDS011;32098;49.448;7.904;2023-09-18T07:40:46;6.28;;;1.98;;
46391;SDS011;32098;49.448;7.904;2023-09-18T07:43:13;5.40;;;2.00;;
46391;SDS011;32098;49.448;7.904;2023-09-18T07:45:41;4.78;;;2.20;;
46391;SDS011;32098;49.448;7.904;2023-09-18T07:48:08;5.43;;;2.00;;
46391;SDS011;32098;49.448;7.904;2023-09-18T07:50:35;5.03;;;1.92;;
46391;SDS011;32098;49.448;7.904;2023-09-18T07:53:02;5.22;;;1.85;;
46391;SDS011;32098;49.448;7.904;2023-09-18T07:55:29;4.82;;;2.25;;
46391;SDS011;32098;49.448;7.904;2023-09-18T07:57:56;5.15;;;1.95;;
46391;SDS011;32098;49.448;7.904;2023-09-18T08:00:22;5.35;;;2.28;;
46391;SDS011;32098;49.448;7.904;2023-09-18T08:02:52;6.82;;;2.05;;
46391;SDS011;32098;49.448;7.904;2023-09-18T08:05:25;6.38;;;2.20;;
46391;SDS011;32098;49.448;7.904;2023-09-18T08:07:54;8.13;;;2.38;;
46391;SDS011;32098;49.448;7.904;2023-09-18T08:10:25;5.88;;;2.38;;
46391;SDS011;32098;49.448;7.904;2023-09-18T08:12:52;4.78;;;2.10;;
46391;SDS011;32098;49.448;7.904;2023-09-18T08:15:19;6.55;;;1.73;;
46391;SDS011;32098;49.448;7.904;2023-09-18T08:17:46;5.93;;;2.38;;
46391;SDS011;32098;49.448;7.904;2023-09-18T08:20:15;5.00;;;1.90;;
46391;SDS011;32098;49.448;7.904;2023-09-18T08:22:42;5.03;;;1.77;;
46391;SDS011;32098;49.448;7.904;2023-09-18T08:25:10;4.20;;;2.05;;
46391;SDS011;32098;49.448;7.904;2023-09-18T08:27:38;4.85;;;1.80;;
46391;SDS011;32098;49.448;7.904;2023-09-18T08:30:11;6.22;;;2.10;;
46391;SDS011;32098;49.448;7.904;2023-09-18T08:32:39;6.47;;;2.20;;
46391;SDS011;32098;49.448;7.904;2023-09-18T08:35:07;7.70;;;2.30;;
46391;SDS011;32098;49.448;7.904;2023-09-18T08:37:34;4.63;;;1.60;;
46391;SDS011;32098;49.448;7.904;2023-09-18T08:40:01;4.00;;;1.70;;
46391;SDS011;32098;49.448;7.904;2023-09-18T08:42:38;10.45;;;1.95;;
46391;SDS011;32098;49.448;7.904;2023-09-18T08:45:08;5.80;;;2.05;;
46391;SDS011;32098;49.448;7.904;2023-09-18T08:47:37;6.10;;;2.03;;
46391;SDS011;32098;49.448;7.904;2023-09-18T08:50:10;6.15;;;1.60;;
46391;SDS011;32098;49.448;7.904;2023-09-18T08:52:38;5.78;;;2.05;;
46391;SDS011;32098;49.448;7.904;2023-09-18T08:55:06;5.03;;;1.73;;
46391;SDS011;32098;49.448;7.904;2023-09-18T08:57:36;7.40;;;1.90;;
46391;SDS011;32098;49.448;7.904;2023-09-18T09:00:10;5.72;;;2.00;;
46391;SDS011;32098;49.448;7.904;2023-09-18T09:02:46;5.50;;;2.25;;
46391;SDS011;32098;49.448;7.904;2023-09-18T09:05:15;3.17;;;1.65;;
46391;SDS011;32098;49.448;7.904;2023-09-18T09:07:42;3.13;;;1.80;;
46391;SDS011;32098;49.448;7.904;2023-09-18T09:10:09;6.38;;;2.30;;
46391;SDS011;32098;49.448;7.904;2023-09-18T09:12:55;3.53;;;1.60;;
46391;SDS011;32098;49.448;7.904;2023-09-18T09:15:27;6.30;;;1.95;;
46391;SDS011;32098;49.448;7.904;2023-09-18T09:18:03;5.20;;;1.85;;
46391;SDS011;32098;49.448;7.904;2023-09-18T09:20:32;5.65;;;1.77;;
46391;SDS011;32098;49.448;7.904;2023-09-18T09:23:02;5.97;;;1.77;;
46391;SDS011;32098;49.448;7.904;2023-09-18T09:25:31;4.22;;;1.80;;
46391;SDS011;32098;49.448;7.904;2023-09-18T09:27:59;4.18;;;1.38;;
46391;SDS011;32098;49.448;7.904;2023-09-18T09:30:28;9.45;;;1.90;;
46391;SDS011;32098;49.448;7.904;2023-09-18T09:32:55;5.38;;;1.70;;
46391;SDS011;32098;49.448;7.904;2023-09-18T09:35:27;5.57;;;1.98;;
46391;SDS011;32098;49.448;7.904;2023-09-18T09:38:10;7.05;;;1.92;;
46391;SDS011;32098;49.448;7.904;2023-09-18T09:40:39;3.97;;;1.40;;
46391;SDS011;32098;49.448;7.904;2023-09-18T09:43:10;3.97;;;1.38;;
46391;SDS011;32098;49.448;7.904;2023-09-18T09:45:41;4.78;;;1.80;;
46391;SDS011;32098;49.448;7.904;2023-09-18T09:48:08;3.95;;;1.52;;
46391;SDS011;32098;49.448;7.904;2023-09-18T09:50:45;4.32;;;1.17;;
46391;SDS011;32098;49.448;7.904;2023-09-18T09:53:17;3.65;;;1.35;;
46391;SDS011;32098;49.448;7.904;2023-09-18T09:55:45;4.55;;;1.60;;
46391;SDS011;32098;49.448;7.904;2023-09-18T09:58:11;3.95;;;1.50;;
46391;SDS011;32098;49.448;7.904;2023-09-18T10:03:17;4.63;;;1.52;;
46391;SDS011;32098;49.448;7.904;2023-09-18T10:05:46;6.00;;;1.58;;
46391;SDS011;32098;49.448;7.904;2023-09-18T10:08:15;4.22;;;1.30;;
46391;SDS011;32098;49.448;7.904;2023-09-18T10:10:47;2.85;;;1.20;;
46391;SDS011;32098;49.448;7.904;2023-09-18T10:13:19;3.13;;;1.40;;
46391;SDS011;32098;49.448;7.904;2023-09-18T10:15:50;3.47;;;1.20;;
46391;SDS011;32098;49.448;7.904;2023-09-18T10:18:28;3.03;;;1.30;;
46391;SDS011;32098;49.448;7.904;2023-09-18T10:21:25;6.03;;;1.20;;
46391;SDS011;32098;49.448;7.904;2023-09-18T10:24:10;4.47;;;1.40;;
46391;SDS011;32098;49.448;7.904;2023-09-18T10:26:50;4.75;;;2.53;;
46391;SDS011;32098;49.448;7.904;2023-09-18T10:29:25;5.00;;;1.30;;
46391;SDS011;32098;49.448;7.904;2023-09-18T10:31:52;3.83;;;1.75;;
46391;SDS011;32098;49.448;7.904;2023-09-18T10:34:20;2.58;;;1.25;;
46391;SDS011;32098;49.448;7.904;2023-09-18T10:36:49;3.50;;;1.13;;
46391;SDS011;32098;49.448;7.904;2023-09-18T10:39:21;2.53;;;1.20;;
46391;SDS011;32098;49.448;7.904;2023-09-18T10:41:52;6.07;;;1.55;;
46391;SDS011;32098;49.448;7.904;2023-09-18T10:44:19;2.85;;;1.20;;
46391;SDS011;32098;49.448;7.904;2023-09-18T10:46:50;2.72;;;1.30;;
46391;SDS011;32098;49.448;7.904;2023-09-18T10:49:18;2.95;;;1.10;;
46391;SDS011;32098;49.448;7.904;2023-09-18T10:51:47;4.38;;;1.70;;
46391;SDS011;32098;49.448;7.904;2023-09-18T10:54:15;4.03;;;1.20;;
46391;SDS011;32098;49.448;7.904;2023-09-18T10:56:42;4.72;;;1.30;;
46391;SDS011;32098;49.448;7.904;2023-09-18T10:59:09;4.15;;;1.45;;
46391;SDS011;32098;49.448;7.904;2023-09-18T11:01:36;4.28;;;1.58;;
46391;SDS011;32098;49.448;7.904;2023-09-18T11:04:03;4.50;;;1.45;;
46391;SDS011;32098;49.448;7.904;2023-09-18T11:09:23;2.88;;;1.38;;
46391;SDS011;32098;49.448;7.904;2023-09-18T11:20:19;3.05;;;1.05;;
46391;SDS011;32098;49.448;7.904;2023-09-18T11:23:09;2.97;;;1.50;;
46391;SDS011;32098;49.448;7.904;2023-09-18T11:25:42;3.20;;;1.10;;
46391;SDS011;32098;49.448;7.904;2023-09-18T11:28:15;4.38;;;1.58;;
46391;SDS011;32098;49.448;7.904;2023-09-18T11:33:29;4.15;;;1.20;;
46391;SDS011;32098;49.448;7.904;2023-09-18T11:36:07;3.30;;;1.25;;
46391;SDS011;32098;49.448;7.904;2023-09-18T11:38:57;4.97;;;1.27;;
46391;SDS011;32098;49.448;7.904;2023-09-18T11:41:32;4.00;;;1.50;;
46391;SDS011;32098;49.448;7.904;2023-09-18T11:46:45;3.00;;;1.42;;
46391;SDS011;32098;49.448;7.904;2023-09-18T11:49:23;3.50;;;1.52;;
46391;SDS011;32098;49.448;7.904;2023-09-18T11:51:54;3.58;;;1.27;;
46391;SDS011;32098;49.448;7.904;2023-09-18T11:54:24;4.53;;;1.30;;
46391;SDS011;32098;49.448;7.904;2023-09-18T11:56:51;3.55;;;1.70;;
46391;SDS011;32098;49.448;7.904;2023-09-18T11:59:18;3.50;;;1.35;;
46391;SDS011;32098;49.448;7.904;2023-09-18T12:01:53;2.08;;;1.00;;
46391;SDS011;32098;49.448;7.904;2023-09-18T12:04:27;4.45;;;1.52;;
46391;SDS011;32098;49.448;7.904;2023-09-18T12:06:53;3.30;;;1.20;;
46391;SDS011;32098;49.448;7.904;2023-09-18T12:09:20;3.53;;;1.60;;
46391;SDS011;32098;49.448;7.904;2023-09-18T12:11:47;6.47;;;1.63;;
46391;SDS011;32098;49.448;7.904;2023-09-18T12:14:18;2.03;;;1.33;;
46391;SDS011;32098;49.448;7.904;2023-09-18T12:16:46;4.68;;;1.83;;
46391;SDS011;32098;49.448;7.904;2023-09-18T12:19:16;1.77;;;1.10;;
46391;SDS011;32098;49.448;7.904;2023-09-18T12:21:47;2.72;;;1.50;;
46391;SDS011;32098;49.448;7.904;2023-09-18T12:24:15;4.82;;;1.38;;
46391;SDS011;32098;49.448;7.904;2023-09-18T12:26:47;3.00;;;1.33;;
46391;SDS011;32098;49.448;7.904;2023-09-18T12:29:14;4.35;;;1.70;;
46391;SDS011;32098;49.448;7.904;2023-09-18T12:31:41;4.88;;;1.70;;
46391;SDS011;32098;49.448;7.904;2023-09-18T12:34:18;6.07;;;1.90;;
46391;SDS011;32098;49.448;7.904;2023-09-18T12:36:48;4.65;;;1.50;;
46391;SDS011;32098;49.448;7.904;2023-09-18T12:39:16;3.90;;;1.63;;
46391;SDS011;32098;49.448;7.904;2023-09-18T12:41:43;5.43;;;1.42;;
46391;SDS011;32098;49.448;7.904;2023-09-18T12:44:10;4.93;;;1.63;;
46391;SDS011;32098;49.448;7.904;2023-09-18T12:46:38;3.83;;;1.27;;
46391;SDS011;32098;49.448;7.904;2023-09-18T12:49:17;4.55;;;1.70;;
46391;SDS011;32098;49.448;7.904;2023-09-18T12:51:56;3.92;;;1.70;;
46391;SDS011;32098;49.448;7.904;2023-09-18T12:54:44;3.10;;;1.35;;
46391;SDS011;32098;49.448;7.904;2023-09-18T12:57:20;3.90;;;1.55;;
46391;SDS011;32098;49.448;7.904;2023-09-18T12:59:47;3.88;;;1.60;;
46391;SDS011;32098;49.448;7.904;2023-09-18T13:02:17;5.82;;;1.85;;
46391;SDS011;32098;49.448;7.904;2023-09-18T13:04:51;3.35;;;1.48;;
46391;SDS011;32098;49.448;7.904;2023-09-18T13:07:19;2.85;;;1.45;;
46391;SDS011;32098;49.448;7.904;2023-09-18T13:10:02;5.07;;;2.15;;
46391;SDS011;32098;49.448;7.904;2023-09-18T13:12:43;2.22;;;1.40;;
46391;SDS011;32098;49.448;7.904;2023-09-18T13:15:12;4.70;;;1.60;;
46391;SDS011;32098;49.448;7.904;2023-09-18T13:17:40;1.50;;;1.40;;
46391;SDS011;32098;49.448;7.904;2023-09-18T13:20:11;6.50;;;1.67;;
46391;SDS011;32098;49.448;7.904;2023-09-18T13:22:42;3.92;;;1.80;;
46391;SDS011;32098;49.448;7.904;2023-09-18T13:25:18;4.82;;;1.60;;
46391;SDS011;32098;49.448;7.904;2023-09-18T13:27:53;1.75;;;1.40;;
46391;SDS011;32098;49.448;7.904;2023-09-18T13:30:20;2.50;;;1.50;;
46391;SDS011;32098;49.448;7.904;2023-09-18T13:32:51;2.10;;;1.45;;
46391;SDS011;32098;49.448;7.904;2023-09-18T13:35:27;4.30;;;1.60;;
46391;SDS011;32098;49.448;7.904;2023-09-18T13:37:55;4.22;;;1.50;;
46391;SDS011;32098;49.448;7.904;2023-09-18T13:40:22;3.92;;;1.40;;
46391;SDS011;32098;49.448;7.904;2023-09-18T13:42:48;4.43;;;1.60;;
46391;SDS011;32098;49.448;7.904;2023-09-18T13:45:15;6.82;;;1.73;;
46391;SDS011;32098;49.448;7.904;2023-09-18T13:47:44;2.53;;;1.38;;
46391;SDS011;32098;49.448;7.904;2023-09-18T13:50:11;2.97;;;1.35;;
46391;SDS011;32098;49.448;7.904;2023-09-18T13:52:39;2.55;;;1.48;;
46391;SDS011;32098;49.448;7.904;2023-09-18T13:55:06;2.83;;;1.40;;
46391;SDS011;32098;49.448;7.904;2023-09-18T13:57:33;1.95;;;1.50;;
46391;SDS011;32098;49.448;7.904;2023-09-18T14:00:00;2.38;;;1.30;;
46391;SDS011;32098;49.448;7.904;2023-09-18T14:02:38;3.13;;;1.30;;
46391;SDS011;32098;49.448;7.904;2023-09-18T14:05:06;2.63;;;1.45;;
46391;SDS011;32098;49.448;7.904;2023-09-18T14:07:34;1.98;;;1.48;;
46391;SDS011;32098;49.448;7.904;2023-09-18T14:10:01;2.25;;;1.23;;
46391;SDS011;32098;49.448;7.904;2023-09-18T14:12:30;2.45;;;1.25;;
46391;SDS011;32098;49.448;7.904;2023-09-18T14:14:58;3.75;;;1.60;;
46391;SDS011;32098;49.448;7.904;2023-09-18T14:17:26;3.95;;;1.30;;
46391;SDS011;32098;49.448;7.904;2023-09-18T14:19:52;3.88;;;1.67;;
46391;SDS011;32098;49.448;7.904;2023-09-18T14:22:21;2.60;;;1.40;;
46391;SDS011;32098;49.448;7.904;2023-09-18T14:24:47;2.58;;;1.45;;
46391;SDS011;32098;49.448;7.904;2023-09-18T14:27:14;3.60;;;1.40;;
46391;SDS011;32098;49.448;7.904;2023-09-18T14:29:40;1.67;;;1.38;;
46391;SDS011;32098;49.448;7.904;2023-09-18T14:32:07;2.40;;;1.60;;
46391;SDS011;32098;49.448;7.904;2023-09-18T14:34:35;4.10;;;1.42;;
46391;SDS011;32098;49.448;7.904;2023-09-18T14:37:02;5.88;;;1.65;;
46391;SDS011;32098;49.448;7.904;2023-09-18T14:39:30;4.05;;;1.40;;
46391;SDS011;32098;49.448;7.904;2023-09-18T14:41:57;4.50;;;1.80;;
46391;SDS011;32098;49.448;7.904;2023-09-18T14:44:26;3.00;;;1.50;;
46391;SDS011;32098;49.448;7.904;2023-09-18T14:46:56;4.18;;;1.50;;
46391;SDS011;32098;49.448;7.904;2023-09-18T14:49:24;3.45;;;1.38;;
46391;SDS011;32098;49.448;7.904;2023-09-18T14:51:50;2.53;;;1.55;;
46391;SDS011;32098;49.448;7.904;2023-09-18T14:54:19;3.17;;;1.67;;
46391;SDS011;32098;49.448;7.904;2023-09-18T14:56:47;3.50;;;1.70;;
46391;SDS011;32098;49.448;7.904;2023-09-18T14:59:13;4.30;;;1.70;;
46391;SDS011;32098;49.448;7.904;2023-09-18T15:01:47;3.38;;;1.42;;
46391;SDS011;32098;49.448;7.904;2023-09-18T15:04:15;2.80;;;1.48;;
46391;SDS011;32098;49.448;7.904;2023-09-18T15:06:41;3.70;;;1.50;;
46391;SDS011;32098;49.448;7.904;2023-09-18T15:09:08;7.18;;;1.80;;
46391;SDS011;32098;49.448;7.904;2023-09-18T15:11:34;2.95;;;1.40;;
46391;SDS011;32098;49.448;7.904;2023-09-18T15:14:01;3.53;;;1.65;;
46391;SDS011;32098;49.448;7.904;2023-09-18T15:16:28;3.50;;;1.50;;